Kezdőlap
METAR-TAF:

METAR-TAF

Repülőterek :

Litchfield Municipal Airport

Litchfield, Illinois, Amerikai Egyesült Államok

földrajzi szélesség: 39-09-44N, földrajzi hosszúság: 089-40-28W, magasság: 210 m

Jelenlegi meteorológiai megfigyelések

A jelentés 30 perccel ezelõtt készült, 07:55 UTC
Északi szél 7 kt
Hőmérséklet -12°C
Páratartalom 78%
Légköri nyomás 1036 hPa
Látótávolság: 16.1 km
Borult 1400 lábon

METAR: K3LF 200755Z AUTO 35007KT 10SM OVC014 M12/M15 A3059 RMK AO2 T11171146

Idő: 02:25 (08:25 UTC)


TAF: hiányzik

Meteorológiai megfigyelések és előrejelzések több, mint 4000 repülőtéren (METAR és TAF jelentéseket).

A térképen piros és sárga pontok jelzik az elérhető meteorológiai állomásokat.

Mozgassa az egeret a pont fölött, hogy megjelenjen az állomás neve.

Azután kattintson az időjárási megfigyelések és előrejelzések megtekintéséhez.

A térkép megváltoztatása: kattintson a fekete keresztel jelölt zöld gombra ráközelítéshez, a vonallal jelölt zöld gombra távolításhoz, vagy a zöld nyilakra a szomszédos térképek eléréséhez.


METAR-TAF: